sensor_id;sensor_type;location;lat;lon;timestamp;temperature;humidity
52481;DHT22;38393;52.404;13.532;2024-02-28T00:02:09;5.30;99.90
52481;DHT22;38393;52.404;13.532;2024-02-28T00:04:35;5.20;99.90
52481;DHT22;38393;52.404;13.532;2024-02-28T00:07:00;5.20;99.90
52481;DHT22;38393;52.404;13.532;2024-02-28T00:09:26;5.20;99.90
52481;DHT22;38393;52.404;13.532;2024-02-28T00:11:51;5.40;99.90
52481;DHT22;38393;52.404;13.532;2024-02-28T00:14:17;5.20;99.90
52481;DHT22;38393;52.404;13.532;2024-02-28T00:16:43;5.20;99.90
52481;DHT22;38393;52.404;13.532;2024-02-28T00:19:09;5.10;99.90
52481;DHT22;38393;52.404;13.532;2024-02-28T00:21:36;5.00;99.90
52481;DHT22;38393;52.404;13.532;2024-02-28T00:24:02;5.00;99.90
52481;DHT22;38393;52.404;13.532;2024-02-28T00:26:27;5.00;99.90
52481;DHT22;38393;52.404;13.532;2024-02-28T00:28:53;4.90;99.90
52481;DHT22;38393;52.404;13.532;2024-02-28T00:31:19;5.10;99.90
52481;DHT22;38393;52.404;13.532;2024-02-28T00:33:44;5.10;99.90
52481;DHT22;38393;52.404;13.532;2024-02-28T00:36:10;5.00;99.90
52481;DHT22;38393;52.404;13.532;2024-02-28T00:38:35;5.00;99.90
52481;DHT22;38393;52.404;13.532;2024-02-28T00:41:00;5.00;99.90
52481;DHT22;38393;52.404;13.532;2024-02-28T00:43:26;5.00;99.90
52481;DHT22;38393;52.404;13.532;2024-02-28T00:45:51;5.10;99.90
52481;DHT22;38393;52.404;13.532;2024-02-28T00:48:17;4.90;99.90
52481;DHT22;38393;52.404;13.532;2024-02-28T00:50:43;4.90;99.90
52481;DHT22;38393;52.404;13.532;2024-02-28T00:53:08;5.00;99.90
52481;DHT22;38393;52.404;13.532;2024-02-28T00:55:34;5.00;99.90
52481;DHT22;38393;52.404;13.532;2024-02-28T00:57:59;5.10;99.90
52481;DHT22;38393;52.404;13.532;2024-02-28T01:00:25;5.00;99.90
52481;DHT22;38393;52.404;13.532;2024-02-28T01:02:50;4.90;99.90
52481;DHT22;38393;52.404;13.532;2024-02-28T01:05:16;4.80;99.90
52481;DHT22;38393;52.404;13.532;2024-02-28T01:07:41;4.90;99.90
52481;DHT22;38393;52.404;13.532;2024-02-28T01:10:07;5.00;99.90
52481;DHT22;38393;52.404;13.532;2024-02-28T01:12:32;4.90;99.90
52481;DHT22;38393;52.404;13.532;2024-02-28T01:14:58;5.00;99.90
52481;DHT22;38393;52.404;13.532;2024-02-28T01:17:23;5.10;99.90
52481;DHT22;38393;52.404;13.532;2024-02-28T01:19:49;4.80;99.90
52481;DHT22;38393;52.404;13.532;2024-02-28T01:22:14;5.00;99.90
52481;DHT22;38393;52.404;13.532;2024-02-28T01:24:40;4.90;99.90
52481;DHT22;38393;52.404;13.532;2024-02-28T01:27:05;5.10;99.90
52481;DHT22;38393;52.404;13.532;2024-02-28T01:29:31;5.20;99.90
52481;DHT22;38393;52.404;13.532;2024-02-28T01:31:56;5.10;99.90
52481;DHT22;38393;52.404;13.532;2024-02-28T01:34:22;5.10;99.90
52481;DHT22;38393;52.404;13.532;2024-02-28T01:36:47;5.00;99.90
52481;DHT22;38393;52.404;13.532;2024-02-28T01:39:13;5.00;99.90
52481;DHT22;38393;52.404;13.532;2024-02-28T01:41:38;5.10;99.90
52481;DHT22;38393;52.404;13.532;2024-02-28T01:44:04;5.10;99.90
52481;DHT22;38393;52.404;13.532;2024-02-28T01:46:30;5.00;99.90
52481;DHT22;38393;52.404;13.532;2024-02-28T01:48:57;5.00;99.90
52481;DHT22;38393;52.404;13.532;2024-02-28T01:51:24;5.10;99.90
52481;DHT22;38393;52.404;13.532;2024-02-28T01:53:52;5.20;99.90
52481;DHT22;38393;52.404;13.532;2024-02-28T01:56:18;5.10;99.90
52481;DHT22;38393;52.404;13.532;2024-02-28T01:58:46;5.00;99.90
52481;DHT22;38393;52.404;13.532;2024-02-28T02:01:14;5.10;99.90
52481;DHT22;38393;52.404;13.532;2024-02-28T02:03:40;5.20;99.90
52481;DHT22;38393;52.404;13.532;2024-02-28T02:06:05;5.10;99.90
52481;DHT22;38393;52.404;13.532;2024-02-28T02:08:32;5.10;99.90
52481;DHT22;38393;52.404;13.532;2024-02-28T02:10:58;5.00;99.90
52481;DHT22;38393;52.404;13.532;2024-02-28T02:13:23;4.90;99.90
52481;DHT22;38393;52.404;13.532;2024-02-28T02:15:49;4.90;99.90
52481;DHT22;38393;52.404;13.532;2024-02-28T02:18:14;4.90;99.90
52481;DHT22;38393;52.404;13.532;2024-02-28T02:20:44;4.90;99.90
52481;DHT22;38393;52.404;13.532;2024-02-28T02:23:10;4.80;99.90
52481;DHT22;38393;52.404;13.532;2024-02-28T02:25:47;5.00;99.90
52481;DHT22;38393;52.404;13.532;2024-02-28T02:28:13;4.80;99.90
52481;DHT22;38393;52.404;13.532;2024-02-28T02:30:39;4.90;99.90
52481;DHT22;38393;52.404;13.532;2024-02-28T02:33:05;5.00;99.90
52481;DHT22;38393;52.404;13.532;2024-02-28T02:35:31;5.10;99.90
52481;DHT22;38393;52.404;13.532;2024-02-28T02:37:56;5.10;99.90
52481;DHT22;38393;52.404;13.532;2024-02-28T02:40:22;5.00;99.90
52481;DHT22;38393;52.404;13.532;2024-02-28T02:42:47;4.80;99.90
52481;DHT22;38393;52.404;13.532;2024-02-28T02:45:13;4.90;99.90
52481;DHT22;38393;52.404;13.532;2024-02-28T02:47:38;4.90;99.90
52481;DHT22;38393;52.404;13.532;2024-02-28T02:50:05;4.80;99.90
52481;DHT22;38393;52.404;13.532;2024-02-28T02:52:30;4.80;99.90
52481;DHT22;38393;52.404;13.532;2024-02-28T02:54:56;4.80;99.90
52481;DHT22;38393;52.404;13.532;2024-02-28T02:57:21;4.70;99.90
52481;DHT22;38393;52.404;13.532;2024-02-28T02:59:47;4.80;99.90
52481;DHT22;38393;52.404;13.532;2024-02-28T03:02:12;4.80;99.90
52481;DHT22;38393;52.404;13.532;2024-02-28T03:04:38;4.90;99.90
52481;DHT22;38393;52.404;13.532;2024-02-28T03:07:03;4.80;99.90
52481;DHT22;38393;52.404;13.532;2024-02-28T03:09:29;4.90;99.90
52481;DHT22;38393;52.404;13.532;2024-02-28T03:11:54;4.90;99.90
52481;DHT22;38393;52.404;13.532;2024-02-28T03:14:19;4.90;99.90
52481;DHT22;38393;52.404;13.532;2024-02-28T03:16:47;4.90;99.90
52481;DHT22;38393;52.404;13.532;2024-02-28T03:19:14;4.80;99.90
52481;DHT22;38393;52.404;13.532;2024-02-28T03:21:40;5.00;99.90
52481;DHT22;38393;52.404;13.532;2024-02-28T03:24:06;4.90;99.90
52481;DHT22;38393;52.404;13.532;2024-02-28T03:26:32;4.90;99.90
52481;DHT22;38393;52.404;13.532;2024-02-28T03:28:57;4.90;99.90
52481;DHT22;38393;52.404;13.532;2024-02-28T03:31:23;4.80;99.90
52481;DHT22;38393;52.404;13.532;2024-02-28T03:33:48;4.90;99.90
52481;DHT22;38393;52.404;13.532;2024-02-28T03:36:14;4.80;99.90
52481;DHT22;38393;52.404;13.532;2024-02-28T03:38:39;4.90;99.90
52481;DHT22;38393;52.404;13.532;2024-02-28T03:41:05;5.00;99.90
52481;DHT22;38393;52.404;13.532;2024-02-28T03:43:30;4.80;99.90
52481;DHT22;38393;52.404;13.532;2024-02-28T03:45:56;4.70;99.90
52481;DHT22;38393;52.404;13.532;2024-02-28T03:48:21;4.80;99.90
52481;DHT22;38393;52.404;13.532;2024-02-28T03:50:47;4.70;99.90
52481;DHT22;38393;52.404;13.532;2024-02-28T03:53:12;4.70;99.90
52481;DHT22;38393;52.404;13.532;2024-02-28T03:55:38;4.70;99.90
52481;DHT22;38393;52.404;13.532;2024-02-28T03:58:04;4.50;99.90
52481;DHT22;38393;52.404;13.532;2024-02-28T04:00:29;4.70;99.90
52481;DHT22;38393;52.404;13.532;2024-02-28T04:02:55;4.70;99.90
52481;DHT22;38393;52.404;13.532;2024-02-28T04:05:20;4.90;99.90
52481;DHT22;38393;52.404;13.532;2024-02-28T04:07:45;4.70;99.90
52481;DHT22;38393;52.404;13.532;2024-02-28T04:10:11;4.60;99.90
52481;DHT22;38393;52.404;13.532;2024-02-28T04:12:37;4.70;99.90
52481;DHT22;38393;52.404;13.532;2024-02-28T04:15:02;4.60;99.90
52481;DHT22;38393;52.404;13.532;2024-02-28T04:17:28;4.60;99.90
52481;DHT22;38393;52.404;13.532;2024-02-28T04:19:53;4.70;99.90
52481;DHT22;38393;52.404;13.532;2024-02-28T04:22:19;4.70;99.90
52481;DHT22;38393;52.404;13.532;2024-02-28T04:24:44;4.70;99.90
52481;DHT22;38393;52.404;13.532;2024-02-28T04:27:10;4.70;99.90
52481;DHT22;38393;52.404;13.532;2024-02-28T04:29:37;4.70;99.90
52481;DHT22;38393;52.404;13.532;2024-02-28T04:32:03;4.70;99.90
52481;DHT22;38393;52.404;13.532;2024-02-28T04:34:29;4.70;99.90
52481;DHT22;38393;52.404;13.532;2024-02-28T04:36:54;4.70;99.90
52481;DHT22;38393;52.404;13.532;2024-02-28T04:39:19;4.60;99.90
52481;DHT22;38393;52.404;13.532;2024-02-28T04:41:45;4.60;99.90
52481;DHT22;38393;52.404;13.532;2024-02-28T04:44:10;4.70;99.90
52481;DHT22;38393;52.404;13.532;2024-02-28T04:46:37;4.70;99.90
52481;DHT22;38393;52.404;13.532;2024-02-28T04:49:02;4.60;99.90
52481;DHT22;38393;52.404;13.532;2024-02-28T04:51:28;4.60;99.90
52481;DHT22;38393;52.404;13.532;2024-02-28T04:53:53;4.70;99.90
52481;DHT22;38393;52.404;13.532;2024-02-28T04:56:19;4.60;99.90
52481;DHT22;38393;52.404;13.532;2024-02-28T04:58:44;4.70;99.90
52481;DHT22;38393;52.404;13.532;2024-02-28T05:01:10;4.60;99.90
52481;DHT22;38393;52.404;13.532;2024-02-28T05:03:35;4.70;99.90
52481;DHT22;38393;52.404;13.532;2024-02-28T05:06:01;4.70;99.90
52481;DHT22;38393;52.404;13.532;2024-02-28T05:08:26;4.80;99.90
52481;DHT22;38393;52.404;13.532;2024-02-28T05:10:53;4.70;99.90
52481;DHT22;38393;52.404;13.532;2024-02-28T05:13:19;4.60;99.90
52481;DHT22;38393;52.404;13.532;2024-02-28T05:15:44;4.70;99.90
52481;DHT22;38393;52.404;13.532;2024-02-28T05:18:10;4.60;99.90
52481;DHT22;38393;52.404;13.532;2024-02-28T05:20:36;4.60;99.90
52481;DHT22;38393;52.404;13.532;2024-02-28T05:23:01;4.50;99.90
52481;DHT22;38393;52.404;13.532;2024-02-28T05:25:27;4.60;99.90
52481;DHT22;38393;52.404;13.532;2024-02-28T05:27:52;4.60;99.90
52481;DHT22;38393;52.404;13.532;2024-02-28T05:30:18;4.60;99.90
52481;DHT22;38393;52.404;13.532;2024-02-28T05:32:44;4.60;99.90
52481;DHT22;38393;52.404;13.532;2024-02-28T05:35:10;4.60;99.90
52481;DHT22;38393;52.404;13.532;2024-02-28T05:37:36;4.60;99.90
52481;DHT22;38393;52.404;13.532;2024-02-28T05:40:02;4.60;99.90
52481;DHT22;38393;52.404;13.532;2024-02-28T05:42:27;4.60;99.90
52481;DHT22;38393;52.404;13.532;2024-02-28T05:44:54;4.50;99.90
52481;DHT22;38393;52.404;13.532;2024-02-28T05:47:19;4.50;99.90
52481;DHT22;38393;52.404;13.532;2024-02-28T05:49:45;4.60;99.90
52481;DHT22;38393;52.404;13.532;2024-02-28T05:52:11;4.60;99.90
52481;DHT22;38393;52.404;13.532;2024-02-28T05:54:36;4.60;99.90
52481;DHT22;38393;52.404;13.532;2024-02-28T05:57:02;4.50;99.90
52481;DHT22;38393;52.404;13.532;2024-02-28T05:59:28;4.50;99.90
52481;DHT22;38393;52.404;13.532;2024-02-28T06:01:53;4.60;99.90
52481;DHT22;38393;52.404;13.532;2024-02-28T06:04:18;4.40;99.90
52481;DHT22;38393;52.404;13.532;2024-02-28T06:06:44;4.50;99.90
52481;DHT22;38393;52.404;13.532;2024-02-28T06:09:10;4.60;99.90
52481;DHT22;38393;52.404;13.532;2024-02-28T06:11:36;4.50;99.90
52481;DHT22;38393;52.404;13.532;2024-02-28T06:14:01;4.60;99.90
52481;DHT22;38393;52.404;13.532;2024-02-28T06:16:29;4.60;99.90
52481;DHT22;38393;52.404;13.532;2024-02-28T06:18:54;4.70;99.90
52481;DHT22;38393;52.404;13.532;2024-02-28T06:21:22;4.50;99.90
52481;DHT22;38393;52.404;13.532;2024-02-28T06:23:48;4.60;99.90
52481;DHT22;38393;52.404;13.532;2024-02-28T06:26:13;4.50;99.90
52481;DHT22;38393;52.404;13.532;2024-02-28T06:28:43;4.60;99.90
52481;DHT22;38393;52.404;13.532;2024-02-28T06:31:17;4.60;99.90
52481;DHT22;38393;52.404;13.532;2024-02-28T06:33:43;4.60;99.90
52481;DHT22;38393;52.404;13.532;2024-02-28T06:36:09;4.60;99.90
52481;DHT22;38393;52.404;13.532;2024-02-28T06:38:34;4.60;99.90
52481;DHT22;38393;52.404;13.532;2024-02-28T06:41:04;4.70;99.90
52481;DHT22;38393;52.404;13.532;2024-02-28T06:43:34;4.70;99.90
52481;DHT22;38393;52.404;13.532;2024-02-28T06:46:01;4.60;99.90
52481;DHT22;38393;52.404;13.532;2024-02-28T06:48:27;4.60;99.90
52481;DHT22;38393;52.404;13.532;2024-02-28T06:50:52;4.70;99.90
52481;DHT22;38393;52.404;13.532;2024-02-28T06:53:18;4.50;99.90
52481;DHT22;38393;52.404;13.532;2024-02-28T06:55:43;4.60;99.90
52481;DHT22;38393;52.404;13.532;2024-02-28T06:58:10;4.70;99.90
52481;DHT22;38393;52.404;13.532;2024-02-28T07:00:36;4.50;99.90
52481;DHT22;38393;52.404;13.532;2024-02-28T07:03:01;4.50;99.90
52481;DHT22;38393;52.404;13.532;2024-02-28T07:05:27;4.60;99.90
52481;DHT22;38393;52.404;13.532;2024-02-28T07:07:52;4.50;99.90
52481;DHT22;38393;52.404;13.532;2024-02-28T07:10:18;4.50;99.90
52481;DHT22;38393;52.404;13.532;2024-02-28T07:12:44;4.40;99.90
52481;DHT22;38393;52.404;13.532;2024-02-28T07:15:09;4.50;99.90
52481;DHT22;38393;52.404;13.532;2024-02-28T07:17:35;4.40;99.90
52481;DHT22;38393;52.404;13.532;2024-02-28T07:20:00;4.40;99.90
52481;DHT22;38393;52.404;13.532;2024-02-28T07:22:26;4.30;99.90
52481;DHT22;38393;52.404;13.532;2024-02-28T07:24:51;4.50;99.90
52481;DHT22;38393;52.404;13.532;2024-02-28T07:27:17;4.40;99.90
52481;DHT22;38393;52.404;13.532;2024-02-28T07:29:42;4.40;99.90
52481;DHT22;38393;52.404;13.532;2024-02-28T07:32:09;4.50;99.90
52481;DHT22;38393;52.404;13.532;2024-02-28T07:34:34;4.40;99.90
52481;DHT22;38393;52.404;13.532;2024-02-28T07:37:00;4.30;99.90
52481;DHT22;38393;52.404;13.532;2024-02-28T07:39:25;4.50;99.90
52481;DHT22;38393;52.404;13.532;2024-02-28T07:41:52;4.50;99.90
52481;DHT22;38393;52.404;13.532;2024-02-28T07:44:18;4.40;99.90
52481;DHT22;38393;52.404;13.532;2024-02-28T07:46:43;4.50;99.90
52481;DHT22;38393;52.404;13.532;2024-02-28T07:49:09;4.50;99.90
52481;DHT22;38393;52.404;13.532;2024-02-28T07:51:36;4.60;99.90
52481;DHT22;38393;52.404;13.532;2024-02-28T07:54:01;4.50;99.90
52481;DHT22;38393;52.404;13.532;2024-02-28T07:56:27;4.40;99.90
52481;DHT22;38393;52.404;13.532;2024-02-28T07:58:52;4.30;99.90
52481;DHT22;38393;52.404;13.532;2024-02-28T08:01:18;4.40;99.90
52481;DHT22;38393;52.404;13.532;2024-02-28T08:03:43;4.60;99.90
52481;DHT22;38393;52.404;13.532;2024-02-28T08:06:10;4.50;99.90
52481;DHT22;38393;52.404;13.532;2024-02-28T08:08:36;4.20;99.90
52481;DHT22;38393;52.404;13.532;2024-02-28T08:11:01;4.40;99.90
52481;DHT22;38393;52.404;13.532;2024-02-28T08:13:28;4.30;99.90
52481;DHT22;38393;52.404;13.532;2024-02-28T08:15:54;4.30;99.90
52481;DHT22;38393;52.404;13.532;2024-02-28T08:18:20;4.30;99.90
52481;DHT22;38393;52.404;13.532;2024-02-28T08:20:45;4.30;99.90
52481;DHT22;38393;52.404;13.532;2024-02-28T08:23:11;4.40;99.90
52481;DHT22;38393;52.404;13.532;2024-02-28T08:25:36;4.40;99.90
52481;DHT22;38393;52.404;13.532;2024-02-28T08:28:03;4.50;99.90
52481;DHT22;38393;52.404;13.532;2024-02-28T08:30:28;4.70;99.90
52481;DHT22;38393;52.404;13.532;2024-02-28T08:32:54;4.70;99.90
52481;DHT22;38393;52.404;13.532;2024-02-28T08:35:19;4.80;99.90
52481;DHT22;38393;52.404;13.532;2024-02-28T08:37:45;4.70;99.90
52481;DHT22;38393;52.404;13.532;2024-02-28T08:40:10;4.50;99.90
52481;DHT22;38393;52.404;13.532;2024-02-28T08:42:36;4.50;99.90
52481;DHT22;38393;52.404;13.532;2024-02-28T08:45:02;4.50;99.90
52481;DHT22;38393;52.404;13.532;2024-02-28T08:47:29;4.40;99.90
52481;DHT22;38393;52.404;13.532;2024-02-28T08:49:54;4.20;99.90
52481;DHT22;38393;52.404;13.532;2024-02-28T08:52:21;4.30;99.90
52481;DHT22;38393;52.404;13.532;2024-02-28T08:54:47;4.40;99.90
52481;DHT22;38393;52.404;13.532;2024-02-28T08:57:13;4.40;99.90
52481;DHT22;38393;52.404;13.532;2024-02-28T08:59:38;4.40;99.90
52481;DHT22;38393;52.404;13.532;2024-02-28T09:02:05;4.20;99.90
52481;DHT22;38393;52.404;13.532;2024-02-28T09:04:31;4.30;99.90
52481;DHT22;38393;52.404;13.532;2024-02-28T09:06:56;4.20;99.90
52481;DHT22;38393;52.404;13.532;2024-02-28T09:09:22;4.30;99.90
52481;DHT22;38393;52.404;13.532;2024-02-28T09:11:47;4.30;99.90
52481;DHT22;38393;52.404;13.532;2024-02-28T09:14:13;4.30;99.90
52481;DHT22;38393;52.404;13.532;2024-02-28T09:16:38;4.30;99.90
52481;DHT22;38393;52.404;13.532;2024-02-28T09:19:04;4.30;99.90
52481;DHT22;38393;52.404;13.532;2024-02-28T09:21:30;4.40;99.90
52481;DHT22;38393;52.404;13.532;2024-02-28T09:23:55;4.40;99.90
52481;DHT22;38393;52.404;13.532;2024-02-28T09:26:21;4.40;99.90
52481;DHT22;38393;52.404;13.532;2024-02-28T09:28:46;4.50;99.90
52481;DHT22;38393;52.404;13.532;2024-02-28T09:31:12;4.70;99.90
52481;DHT22;38393;52.404;13.532;2024-02-28T09:33:37;4.70;99.90
52481;DHT22;38393;52.404;13.532;2024-02-28T09:36:04;4.70;99.90
52481;DHT22;38393;52.404;13.532;2024-02-28T09:38:30;4.50;99.90
52481;DHT22;38393;52.404;13.532;2024-02-28T09:40:57;4.60;99.90
52481;DHT22;38393;52.404;13.532;2024-02-28T09:43:33;4.50;99.90
52481;DHT22;38393;52.404;13.532;2024-02-28T09:46:05;4.40;99.90
52481;DHT22;38393;52.404;13.532;2024-02-28T09:48:31;4.30;99.90
52481;DHT22;38393;52.404;13.532;2024-02-28T09:50:57;4.00;99.90
52481;DHT22;38393;52.404;13.532;2024-02-28T09:53:23;4.10;99.90
52481;DHT22;38393;52.404;13.532;2024-02-28T09:55:52;4.20;99.90
52481;DHT22;38393;52.404;13.532;2024-02-28T09:58:18;4.20;99.90
52481;DHT22;38393;52.404;13.532;2024-02-28T10:00:46;4.00;99.90
52481;DHT22;38393;52.404;13.532;2024-02-28T10:03:13;4.00;99.90
52481;DHT22;38393;52.404;13.532;2024-02-28T10:05:39;4.10;99.90
52481;DHT22;38393;52.404;13.532;2024-02-28T10:08:05;4.30;99.90
52481;DHT22;38393;52.404;13.532;2024-02-28T10:10:31;4.30;99.90
52481;DHT22;38393;52.404;13.532;2024-02-28T10:12:57;4.30;99.90
52481;DHT22;38393;52.404;13.532;2024-02-28T10:15:26;4.30;99.90
52481;DHT22;38393;52.404;13.532;2024-02-28T10:17:51;4.20;99.90
52481;DHT22;38393;52.404;13.532;2024-02-28T10:20:17;4.30;99.90
52481;DHT22;38393;52.404;13.532;2024-02-28T10:22:42;4.10;99.90
52481;DHT22;38393;52.404;13.532;2024-02-28T10:25:08;4.00;99.90
52481;DHT22;38393;52.404;13.532;2024-02-28T10:27:34;4.20;99.90
52481;DHT22;38393;52.404;13.532;2024-02-28T10:30:00;4.20;99.90
52481;DHT22;38393;52.404;13.532;2024-02-28T10:32:33;4.20;99.90
52481;DHT22;38393;52.404;13.532;2024-02-28T10:35:01;4.30;99.90
52481;DHT22;38393;52.404;13.532;2024-02-28T10:37:28;4.30;99.90
52481;DHT22;38393;52.404;13.532;2024-02-28T10:39:57;4.40;99.90
52481;DHT22;38393;52.404;13.532;2024-02-28T10:42:23;4.40;99.90
52481;DHT22;38393;52.404;13.532;2024-02-28T10:44:50;4.40;99.90
52481;DHT22;38393;52.404;13.532;2024-02-28T10:47:17;4.40;99.90
52481;DHT22;38393;52.404;13.532;2024-02-28T10:49:43;4.40;99.90
52481;DHT22;38393;52.404;13.532;2024-02-28T10:52:12;4.40;99.90
52481;DHT22;38393;52.404;13.532;2024-02-28T10:54:40;4.40;99.90
52481;DHT22;38393;52.404;13.532;2024-02-28T10:57:07;4.30;99.90
52481;DHT22;38393;52.404;13.532;2024-02-28T10:59:34;4.50;99.90
52481;DHT22;38393;52.404;13.532;2024-02-28T11:02:00;4.60;99.90
52481;DHT22;38393;52.404;13.532;2024-02-28T11:04:27;4.50;99.90
52481;DHT22;38393;52.404;13.532;2024-02-28T11:06:56;4.70;99.90
52481;DHT22;38393;52.404;13.532;2024-02-28T11:09:26;4.90;99.90
52481;DHT22;38393;52.404;13.532;2024-02-28T11:11:53;4.70;99.90
52481;DHT22;38393;52.404;13.532;2024-02-28T11:14:19;4.80;99.90
52481;DHT22;38393;52.404;13.532;2024-02-28T11:16:48;4.60;99.90
52481;DHT22;38393;52.404;13.532;2024-02-28T11:19:20;4.70;99.90
52481;DHT22;38393;52.404;13.532;2024-02-28T11:21:55;4.70;99.90
52481;DHT22;38393;52.404;13.532;2024-02-28T11:24:27;5.00;99.90
52481;DHT22;38393;52.404;13.532;2024-02-28T11:26:54;5.00;99.90
52481;DHT22;38393;52.404;13.532;2024-02-28T11:29:28;4.90;99.90
52481;DHT22;38393;52.404;13.532;2024-02-28T11:31:57;5.00;99.90
52481;DHT22;38393;52.404;13.532;2024-02-28T11:34:22;4.80;99.90
52481;DHT22;38393;52.404;13.532;2024-02-28T11:36:51;5.00;99.90
52481;DHT22;38393;52.404;13.532;2024-02-28T11:39:18;5.00;99.90
52481;DHT22;38393;52.404;13.532;2024-02-28T11:41:45;5.00;99.90
52481;DHT22;38393;52.404;13.532;2024-02-28T11:44:12;5.10;99.90
52481;DHT22;38393;52.404;13.532;2024-02-28T11:46:42;5.10;99.90
52481;DHT22;38393;52.404;13.532;2024-02-28T11:49:07;5.10;99.90
52481;DHT22;38393;52.404;13.532;2024-02-28T11:51:33;5.10;99.90
52481;DHT22;38393;52.404;13.532;2024-02-28T11:54:01;5.10;99.90
52481;DHT22;38393;52.404;13.532;2024-02-28T11:56:27;5.10;99.90
52481;DHT22;38393;52.404;13.532;2024-02-28T11:58:53;5.10;99.90
52481;DHT22;38393;52.404;13.532;2024-02-28T12:01:19;5.00;99.90
52481;DHT22;38393;52.404;13.532;2024-02-28T12:03:45;5.10;99.90
52481;DHT22;38393;52.404;13.532;2024-02-28T12:06:11;5.30;99.90
52481;DHT22;38393;52.404;13.532;2024-02-28T12:08:37;5.10;99.90
52481;DHT22;38393;52.404;13.532;2024-02-28T12:11:09;5.20;99.90
52481;DHT22;38393;52.404;13.532;2024-02-28T12:13:37;5.20;99.90
52481;DHT22;38393;52.404;13.532;2024-02-28T12:16:03;5.10;99.90
52481;DHT22;38393;52.404;13.532;2024-02-28T12:18:29;5.00;99.90
52481;DHT22;38393;52.404;13.532;2024-02-28T12:20:54;5.20;99.90
52481;DHT22;38393;52.404;13.532;2024-02-28T12:23:20;5.10;99.90
52481;DHT22;38393;52.404;13.532;2024-02-28T12:25:45;5.40;99.90
52481;DHT22;38393;52.404;13.532;2024-02-28T12:28:11;5.40;99.90
52481;DHT22;38393;52.404;13.532;2024-02-28T12:30:41;5.50;99.90
52481;DHT22;38393;52.404;13.532;2024-02-28T12:33:10;5.50;99.90
52481;DHT22;38393;52.404;13.532;2024-02-28T12:35:39;5.70;99.90
52481;DHT22;38393;52.404;13.532;2024-02-28T12:38:04;5.40;99.90
52481;DHT22;38393;52.404;13.532;2024-02-28T12:40:31;5.30;99.90
52481;DHT22;38393;52.404;13.532;2024-02-28T12:42:56;5.20;99.90
52481;DHT22;38393;52.404;13.532;2024-02-28T12:45:22;5.50;99.90
52481;DHT22;38393;52.404;13.532;2024-02-28T12:47:47;5.50;99.90
52481;DHT22;38393;52.404;13.532;2024-02-28T12:50:13;5.50;99.90
52481;DHT22;38393;52.404;13.532;2024-02-28T12:52:38;5.60;99.90
52481;DHT22;38393;52.404;13.532;2024-02-28T12:55:04;5.50;99.90
52481;DHT22;38393;52.404;13.532;2024-02-28T12:57:30;5.40;99.90
52481;DHT22;38393;52.404;13.532;2024-02-28T12:59:55;5.70;99.90
52481;DHT22;38393;52.404;13.532;2024-02-28T13:02:21;5.80;99.90
52481;DHT22;38393;52.404;13.532;2024-02-28T13:04:47;5.70;99.90
52481;DHT22;38393;52.404;13.532;2024-02-28T13:07:13;5.50;99.90
52481;DHT22;38393;52.404;13.532;2024-02-28T13:09:38;5.50;99.90
52481;DHT22;38393;52.404;13.532;2024-02-28T13:12:04;5.30;99.90
52481;DHT22;38393;52.404;13.532;2024-02-28T13:14:30;5.30;99.90
52481;DHT22;38393;52.404;13.532;2024-02-28T13:16:56;5.10;99.90
52481;DHT22;38393;52.404;13.532;2024-02-28T13:19:21;5.20;99.90
52481;DHT22;38393;52.404;13.532;2024-02-28T13:21:47;5.10;99.90
52481;DHT22;38393;52.404;13.532;2024-02-28T13:24:12;5.20;99.90
52481;DHT22;38393;52.404;13.532;2024-02-28T13:26:40;5.30;99.90
52481;DHT22;38393;52.404;13.532;2024-02-28T13:29:06;5.40;99.90
52481;DHT22;38393;52.404;13.532;2024-02-28T13:31:33;5.50;99.90
52481;DHT22;38393;52.404;13.532;2024-02-28T13:33:58;5.50;99.90
52481;DHT22;38393;52.404;13.532;2024-02-28T13:36:24;5.80;99.90
52481;DHT22;38393;52.404;13.532;2024-02-28T13:38:50;5.50;99.90
52481;DHT22;38393;52.404;13.532;2024-02-28T13:41:15;5.40;99.90
52481;DHT22;38393;52.404;13.532;2024-02-28T13:43:41;5.30;99.90
52481;DHT22;38393;52.404;13.532;2024-02-28T13:46:07;5.60;99.90
52481;DHT22;38393;52.404;13.532;2024-02-28T13:48:32;5.70;99.90
52481;DHT22;38393;52.404;13.532;2024-02-28T13:50:59;5.50;99.90
52481;DHT22;38393;52.404;13.532;2024-02-28T13:53:25;5.40;99.90
52481;DHT22;38393;52.404;13.532;2024-02-28T13:55:51;5.40;99.90
52481;DHT22;38393;52.404;13.532;2024-02-28T13:58:17;5.70;99.90
52481;DHT22;38393;52.404;13.532;2024-02-28T14:00:46;5.80;99.90
52481;DHT22;38393;52.404;13.532;2024-02-28T14:03:12;5.90;99.90
52481;DHT22;38393;52.404;13.532;2024-02-28T14:05:38;6.10;99.90
52481;DHT22;38393;52.404;13.532;2024-02-28T14:08:03;6.30;99.90
52481;DHT22;38393;52.404;13.532;2024-02-28T14:10:29;6.20;99.90
52481;DHT22;38393;52.404;13.532;2024-02-28T14:12:55;5.90;99.90
52481;DHT22;38393;52.404;13.532;2024-02-28T14:15:21;6.20;99.90
52481;DHT22;38393;52.404;13.532;2024-02-28T14:17:48;5.90;99.90
52481;DHT22;38393;52.404;13.532;2024-02-28T14:20:13;5.90;99.90
52481;DHT22;38393;52.404;13.532;2024-02-28T14:22:39;6.00;99.90
52481;DHT22;38393;52.404;13.532;2024-02-28T14:25:15;5.90;99.90
52481;DHT22;38393;52.404;13.532;2024-02-28T14:27:43;5.90;99.90
52481;DHT22;38393;52.404;13.532;2024-02-28T14:30:10;6.10;99.90
52481;DHT22;38393;52.404;13.532;2024-02-28T14:32:36;5.90;99.90
52481;DHT22;38393;52.404;13.532;2024-02-28T14:35:03;5.90;99.90
52481;DHT22;38393;52.404;13.532;2024-02-28T14:37:28;5.70;99.90
52481;DHT22;38393;52.404;13.532;2024-02-28T14:39:54;5.60;99.90
52481;DHT22;38393;52.404;13.532;2024-02-28T14:42:20;5.30;99.90
52481;DHT22;38393;52.404;13.532;2024-02-28T14:44:45;5.30;99.90
52481;DHT22;38393;52.404;13.532;2024-02-28T14:47:11;5.20;99.90
52481;DHT22;38393;52.404;13.532;2024-02-28T14:49:36;5.40;99.90
52481;DHT22;38393;52.404;13.532;2024-02-28T14:52:03;5.30;99.90
52481;DHT22;38393;52.404;13.532;2024-02-28T14:54:28;5.40;99.90
52481;DHT22;38393;52.404;13.532;2024-02-28T14:56:54;5.40;99.90
52481;DHT22;38393;52.404;13.532;2024-02-28T14:59:19;5.50;99.90
52481;DHT22;38393;52.404;13.532;2024-02-28T15:01:45;5.40;99.90
52481;DHT22;38393;52.404;13.532;2024-02-28T15:04:10;5.30;99.90
52481;DHT22;38393;52.404;13.532;2024-02-28T15:06:39;5.20;99.90
52481;DHT22;38393;52.404;13.532;2024-02-28T15:09:04;5.30;99.90
52481;DHT22;38393;52.404;13.532;2024-02-28T15:11:30;5.20;99.90
52481;DHT22;38393;52.404;13.532;2024-02-28T15:13:56;5.10;99.90
52481;DHT22;38393;52.404;13.532;2024-02-28T15:16:22;5.20;99.90
52481;DHT22;38393;52.404;13.532;2024-02-28T15:18:47;5.20;99.90
52481;DHT22;38393;52.404;13.532;2024-02-28T15:21:13;5.30;99.90
52481;DHT22;38393;52.404;13.532;2024-02-28T15:23:38;5.30;99.90